Weather at Tomvale Airport

Public forecast

Using degrees Celsius for public forecast. Weather courtesy of forecast.io.

Closest aviation weather report (METAR) to Tomvale Airport

Closest report is Kingston Norman Rogers Airport, 44.0 nm (81.4 km) SSE.

2024/06/16 22:00 (retrieved 44 minutes ago)

CYGK 162200Z 14003KT 15SM FEW160 BKN220 21/08 A3012 RMK AC2CI5 SLP202 DENSITY ALT 900FT

Closest aviation forecast (TAF) to Tomvale Airport

Closest forecast is Kingston Norman Rogers Airport, 44.0 nm (81.4 km) SSE.

2024/06/16 20:00 (retrieved 3 hours ago)

TAF CYGK 161940Z 1620/1703 16005KT P6SM BKN180 FM170000 12007KT P6SM SCT180 RMK NXT FCST BY 171200Z